This is the latest recevied weather packets stored in our database for station/object K1NOT-WX. If no packets are shown the sender has not sent any weather packets the latest 10 day(s).
| Time | Temp. | Humidity | Pressure | Rain* | Wind** | Luminosity | Snow |
|---|---|---|---|---|---|---|---|
| 1778020933 | 17.22° C | 73% | 1007.4 hPa | 0 mm | - | - | - |
| 1778020033 | 17.78° C | 70% | 1007.4 hPa | 0 mm | - | - | - |
| 1778019133 | 16.67° C | 73% | 1007.4 hPa | 0 mm | - | - | - |
| 1778018233 | 16.67° C | 74% | 1007.4 hPa | 0 mm | - | - | - |
| 1778017333 | 16.11° C | 75% | 1007.4 hPa | 0 mm | - | - | - |
| 1778016433 | 16.11° C | 74% | 1007.4 hPa | 0 mm | - | - | - |
| 1778015533 | 16.11° C | 75% | 1007.8 hPa | 0 mm | - | - | - |
| 1778014633 | 15.56° C | 75% | 1007.8 hPa | 0 mm | - | - | - |
| 1778013733 | 15.56° C | 77% | 1007.4 hPa | 0 mm | - | - | - |
| 1778012833 | 15° C | 78% | 1007.8 hPa | 0 mm | - | - | - |
| 1778011933 | 14.44° C | 80% | 1007.8 hPa | 0 mm | - | - | - |
| 1778011033 | 14.44° C | 80% | 1008.1 hPa | 0 mm | - | - | - |
| 1778010133 | 14.44° C | 81% | 1007.8 hPa | 0 mm | - | - | - |
| 1778009233 | 14.44° C | 81% | 1007.8 hPa | 0 mm | - | - | - |
| 1778008333 | 13.89° C | 81% | 1007.8 hPa | 0 mm | - | - | - |
| 1778007433 | 13.89° C | 82% | 1007.4 hPa | 0 mm | - | - | - |
| 1778006533 | 13.89° C | 82% | 1007.8 hPa | 0 mm | - | - | - |
| 1778005633 | 13.89° C | 82% | 1007.4 hPa | 0 mm | - | - | - |
| 1778004733 | 13.89° C | 83% | 1007.8 hPa | 0 mm | - | - | - |
| 1778003833 | 13.33° C | 83% | 1007.4 hPa | 0 mm | - | - | - |
| 1778002933 | 13.33° C | 84% | 1007.8 hPa | 0 mm | - | - | - |
| 1778002033 | 13.33° C | 85% | 1007.4 hPa | 0 mm | - | - | - |
| 1778001133 | 13.33° C | 85% | 1007.4 hPa | 0 mm | - | - | - |
| 1778000233 | 13.33° C | 85% | 1007.4 hPa | 0 mm | - | - | - |
| 1777999333 | 12.78° C | 85% | 1007.4 hPa | 0 mm | - | - | - |
* Rain latest hour (hover to see other rain measurements)
** Current wind speed in m/s (hover to see current wind gust speed)